Time;durP1;ratioP1;P1;durP2;ratioP2;P2;SDS_P1;SDS_P2;PMS_P1;PMS_P2;Temp;Humidity;BMP_temperature;BMP_pressure;BME280_temperature;BME280_humidity;BME280_pressure;Samples;Min_cycle;Max_cycle;Signal;HPM_P1;HPM_P2
2021/05/02 00:01:26;;;;;;;3.00;2.80;;;;;;;;;;5116491;28;20232;-46
2021/05/02 00:03:52;;;;;;;3.28;3.08;;;;;;;;;;5117011;28;20551;-46
2021/05/02 00:06:18;;;;;;;3.45;3.05;;;;;;;;;;5117029;28;20260;-46
2021/05/02 00:08:44;;;;;;;3.20;2.90;;;;;;;;;;5112193;28;20196;-46
2021/05/02 00:11:11;;;;;;;3.10;2.90;;;;;;;;;;5095921;28;20239;-46
2021/05/02 00:13:38;;;;;;;3.40;3.10;;;;;;;;;;5096410;28;20166;-46
2021/05/02 00:16:05;;;;;;;3.10;2.90;;;;;;;;;;5109766;28;20185;-46
2021/05/02 00:18:32;;;;;;;3.22;2.92;;;;;;;;;;5116020;28;20188;-46
2021/05/02 00:20:58;;;;;;;3.30;3.00;;;;;;;;;;5115661;28;20193;-46
2021/05/02 00:23:24;;;;;;;3.35;3.05;;;;;;;;;;5116467;28;20196;-46
2021/05/02 00:25:51;;;;;;;3.63;2.90;;;;;;;;;;5114236;28;20177;-46
2021/05/02 00:28:18;;;;;;;3.42;3.22;;;;;;;;;;5115062;28;20268;-46
2021/05/02 00:30:44;;;;;;;3.30;3.00;;;;;;;;;;5116041;28;20209;-46
2021/05/02 00:33:10;;;;;;;5.03;2.97;;;;;;;;;;5116067;28;20173;-46
2021/05/02 00:35:37;;;;;;;3.50;2.97;;;;;;;;;;5116629;28;20182;-46
2021/05/02 00:38:03;;;;;;;3.03;2.83;;;;;;;;;;5116384;28;20188;-46
2021/05/02 00:40:29;;;;;;;3.00;2.80;;;;;;;;;;5115767;28;20193;-46
2021/05/02 00:42:55;;;;;;;2.83;2.63;;;;;;;;;;5113966;28;20201;-46
2021/05/02 00:45:25;;;;;;;3.00;2.80;;;;;;;;;;5115863;28;20551;-47
2021/05/02 00:47:53;;;;;;;3.22;2.95;;;;;;;;;;5116004;28;20181;-46
2021/05/02 00:50:22;;;;;;;2.85;2.65;;;;;;;;;;5115700;28;20275;-46
2021/05/02 00:52:49;;;;;;;2.85;2.65;;;;;;;;;;5115841;28;20530;-46
2021/05/02 00:55:21;;;;;;;5.07;3.10;;;;;;;;;;5115701;28;20173;-46
2021/05/02 00:57:51;;;;;;;2.65;2.45;;;;;;;;;;5114554;28;20248;-46
2021/05/02 01:00:19;;;;;;;3.03;2.83;;;;;;;;;;5115486;28;20181;-46
2021/05/02 01:02:47;;;;;;;3.35;2.55;;;;;;;;;;5115183;28;20188;-46
2021/05/02 01:05:13;;;;;;;2.70;2.50;;;;;;;;;;5115500;28;20188;-46
2021/05/02 01:07:40;;;;;;;2.80;2.60;;;;;;;;;;5112077;28;20185;-46
2021/05/02 01:10:09;;;;;;;2.70;2.50;;;;;;;;;;5115815;28;20200;-46
2021/05/02 01:12:37;;;;;;;4.05;3.10;;;;;;;;;;5115312;28;20176;-46
2021/05/02 01:15:03;;;;;;;2.63;2.42;;;;;;;;;;5114438;28;20187;-46
2021/05/02 01:17:31;;;;;;;2.70;2.50;;;;;;;;;;5115385;28;20181;-46
2021/05/02 01:19:57;;;;;;;3.10;2.80;;;;;;;;;;5112662;28;20268;-46
2021/05/02 01:22:26;;;;;;;2.70;2.50;;;;;;;;;;5115048;28;20283;-46
2021/05/02 01:24:53;;;;;;;3.85;2.80;;;;;;;;;;5095831;28;20181;-46
2021/05/02 01:27:26;;;;;;;4.10;2.50;;;;;;;;;;5108161;28;20179;-46
2021/05/02 01:29:53;;;;;;;2.92;2.63;;;;;;;;;;5114415;28;20189;-46
2021/05/02 01:32:19;;;;;;;2.80;2.60;;;;;;;;;;5104260;28;20202;-46
2021/05/02 01:34:45;;;;;;;2.60;2.42;;;;;;;;;;5114722;28;20214;-46
2021/05/02 01:37:12;;;;;;;2.65;2.45;;;;;;;;;;5115189;28;20192;-46
2021/05/02 01:39:38;;;;;;;2.88;2.50;;;;;;;;;;5115449;28;20555;-46
2021/05/02 01:42:05;;;;;;;2.30;2.20;;;;;;;;;;5114821;28;20212;-46
2021/05/02 01:44:31;;;;;;;2.60;2.40;;;;;;;;;;5115246;28;20181;-46
2021/05/02 01:46:58;;;;;;;2.80;2.60;;;;;;;;;;5114867;28;20191;-46
2021/05/02 01:49:26;;;;;;;2.75;2.55;;;;;;;;;;5114975;28;20630;-46
2021/05/02 01:51:52;;;;;;;2.60;2.40;;;;;;;;;;5114759;28;20644;-46
2021/05/02 01:54:18;;;;;;;2.72;2.53;;;;;;;;;;5100241;28;20181;-46
2021/05/02 01:56:44;;;;;;;2.53;2.33;;;;;;;;;;5106195;28;20187;-46
2021/05/02 01:59:13;;;;;;;2.88;2.67;;;;;;;;;;5115070;28;20173;-46
2021/05/02 02:01:39;;;;;;;2.72;2.53;;;;;;;;;;5113915;28;20209;-46
2021/05/02 02:04:06;;;;;;;2.70;2.50;;;;;;;;;;5106680;28;20192;-46
2021/05/02 02:06:32;;;;;;;2.80;2.60;;;;;;;;;;5114604;28;20173;-46
2021/05/02 02:08:59;;;;;;;2.35;2.25;;;;;;;;;;5115032;28;20543;-46
2021/05/02 02:11:28;;;;;;;2.85;2.60;;;;;;;;;;5106120;28;20318;-46
2021/05/02 02:13:56;;;;;;;2.65;2.45;;;;;;;;;;5114699;28;20272;-46
2021/05/02 02:16:23;;;;;;;2.50;2.30;;;;;;;;;;5112505;28;20208;-46
2021/05/02 02:18:49;;;;;;;2.47;2.28;;;;;;;;;;5117925;28;20177;-46
2021/05/02 02:21:17;;;;;;;2.60;2.40;;;;;;;;;;5117056;28;20631;-46
2021/05/02 02:23:46;;;;;;;2.50;2.30;;;;;;;;;;5118934;28;20193;-46
2021/05/02 02:26:12;;;;;;;2.53;2.33;;;;;;;;;;5118833;28;20183;-46
2021/05/02 02:28:38;;;;;;;2.50;2.30;;;;;;;;;;5118813;28;20177;-46
2021/05/02 02:31:06;;;;;;;2.30;2.20;;;;;;;;;;5113569;28;20205;-46
2021/05/02 02:33:34;;;;;;;2.47;2.30;;;;;;;;;;5118212;28;20601;-46
2021/05/02 02:36:01;;;;;;;2.50;2.30;;;;;;;;;;5118582;28;20177;-46
2021/05/02 02:38:29;;;;;;;3.25;2.50;;;;;;;;;;5118989;28;20165;-46
2021/05/02 02:40:56;;;;;;;2.50;2.30;;;;;;;;;;5118045;28;20185;-46
2021/05/02 02:43:26;;;;;;;2.60;2.40;;;;;;;;;;5117531;28;20212;-46
2021/05/02 02:45:57;;;;;;;1.98;1.88;;;;;;;;;;5118271;28;20188;-46
2021/05/02 02:48:29;;;;;;;2.53;2.33;;;;;;;;;;5118403;28;20181;-46
2021/05/02 02:50:57;;;;;;;2.30;2.10;;;;;;;;;;5111581;28;20677;-46
2021/05/02 02:53:24;;;;;;;2.50;2.30;;;;;;;;;;5118590;28;20157;-46
2021/05/02 02:56:09;;;;;;;2.50;2.30;;;;;;;;;;5118032;28;20165;-46
2021/05/02 02:58:46;;;;;;;2.15;2.05;;;;;;;;;;5116605;28;20176;-46
2021/05/02 03:01:13;;;;;;;2.25;2.15;;;;;;;;;;5117467;28;20208;-46
2021/05/02 03:03:42;;;;;;;2.30;2.20;;;;;;;;;;5117931;28;20185;-46
2021/05/02 03:06:09;;;;;;;2.40;2.30;;;;;;;;;;5117703;28;20177;-46
2021/05/02 03:08:37;;;;;;;2.40;2.20;;;;;;;;;;5118071;28;20477;-46
2021/05/02 03:11:03;;;;;;;2.60;2.40;;;;;;;;;;5114784;28;20247;-46
2021/05/02 03:13:29;;;;;;;2.42;2.22;;;;;;;;;;5117827;28;20188;-46
2021/05/02 03:15:57;;;;;;;2.20;2.10;;;;;;;;;;5117783;28;20177;-46
2021/05/02 03:18:24;;;;;;;2.45;2.28;;;;;;;;;;5117799;28;20268;-46
2021/05/02 03:21:16;;;;;;;2.10;2.00;;;;;;;;;;5116991;28;20192;-46
2021/05/02 03:23:43;;;;;;;2.35;2.15;;;;;;;;;;5113279;28;20631;-46
2021/05/02 03:26:11;;;;;;;2.58;2.38;;;;;;;;;;5117009;28;20552;-46
2021/05/02 03:28:40;;;;;;;2.47;2.28;;;;;;;;;;5117527;28;20180;-46
2021/05/02 03:31:06;;;;;;;2.10;2.00;;;;;;;;;;5116763;28;20516;-46
2021/05/02 03:33:34;;;;;;;2.30;2.10;;;;;;;;;;5117061;28;20192;-46
2021/05/02 03:36:02;;;;;;;1.92;1.83;;;;;;;;;;5117341;28;20600;-46
2021/05/02 03:38:46;;;;;;;2.55;2.05;;;;;;;;;;5117053;28;20177;-46
2021/05/02 03:41:13;;;;;;;2.20;2.10;;;;;;;;;;5116767;28;20169;-46
2021/05/02 03:43:39;;;;;;;2.17;1.98;;;;;;;;;;5117573;28;20225;-46
2021/05/02 03:46:05;;;;;;;2.33;2.13;;;;;;;;;;5116966;28;20216;-46
2021/05/02 03:48:31;;;;;;;2.13;2.03;;;;;;;;;;5116968;28;20212;-46
2021/05/02 03:50:57;;;;;;;2.30;2.10;;;;;;;;;;5116668;28;20213;-46
2021/05/02 03:53:23;;;;;;;2.22;2.03;;;;;;;;;;5103606;28;20429;-46
2021/05/02 03:55:49;;;;;;;1.90;1.80;;;;;;;;;;5097552;28;20253;-46
2021/05/02 03:58:17;;;;;;;2.58;2.05;;;;;;;;;;5116613;28;20192;-46
2021/05/02 04:00:43;;;;;;;2.10;2.00;;;;;;;;;;5116199;28;20606;-46
2021/05/02 04:03:09;;;;;;;2.00;1.90;;;;;;;;;;5116487;28;20188;-46
2021/05/02 04:05:35;;;;;;;2.40;2.20;;;;;;;;;;5116139;28;20173;-46
2021/05/02 04:08:02;;;;;;;1.83;1.73;;;;;;;;;;5115147;28;20196;-46
2021/05/02 04:10:28;;;;;;;2.00;1.90;;;;;;;;;;5116727;28;20208;-46
2021/05/02 04:12:54;;;;;;;2.00;1.90;;;;;;;;;;5116472;28;20174;-46
2021/05/02 04:15:20;;;;;;;2.40;2.20;;;;;;;;;;5117064;28;20169;-46
2021/05/02 04:17:46;;;;;;;2.28;2.08;;;;;;;;;;5116446;28;20188;-46
2021/05/02 04:20:12;;;;;;;2.08;1.98;;;;;;;;;;5109916;28;20193;-46
2021/05/02 04:22:38;;;;;;;2.22;1.77;;;;;;;;;;5114907;28;20165;-46
2021/05/02 04:25:05;;;;;;;3.70;2.10;;;;;;;;;;5107759;28;20549;-46
2021/05/02 04:27:31;;;;;;;2.40;2.20;;;;;;;;;;5109601;28;20181;-46
2021/05/02 04:29:57;;;;;;;2.33;2.13;;;;;;;;;;5116465;28;20261;-46
2021/05/02 04:32:24;;;;;;;1.80;1.70;;;;;;;;;;5115663;28;20591;-46
2021/05/02 04:34:50;;;;;;;2.00;1.80;;;;;;;;;;5111442;28;20260;-46
2021/05/02 04:37:16;;;;;;;2.83;1.77;;;;;;;;;;5116145;28;20185;-46
2021/05/02 04:39:42;;;;;;;1.98;1.85;;;;;;;;;;5098965;28;20275;-46
2021/05/02 04:42:08;;;;;;;3.55;1.80;;;;;;;;;;5115096;28;20493;-46
2021/05/02 04:44:34;;;;;;;2.67;1.83;;;;;;;;;;5116539;28;20184;-46
2021/05/02 04:47:00;;;;;;;2.35;1.80;;;;;;;;;;5113114;28;20181;-46
2021/05/02 04:49:26;;;;;;;2.75;2.28;;;;;;;;;;5108868;28;20254;-46
2021/05/02 04:51:52;;;;;;;2.92;1.85;;;;;;;;;;5108342;28;20442;-46
2021/05/02 04:54:20;;;;;;;2.13;1.90;;;;;;;;;;5107732;28;20706;-46
2021/05/02 04:56:46;;;;;;;2.85;1.80;;;;;;;;;;5106893;28;20551;-46
2021/05/02 04:59:12;;;;;;;2.28;2.08;;;;;;;;;;5108763;28;20205;-46
2021/05/02 05:01:39;;;;;;;1.80;1.70;;;;;;;;;;5105763;28;20675;-46
2021/05/02 05:04:08;;;;;;;2.10;1.90;;;;;;;;;;5108779;28;20192;-46
2021/05/02 05:06:34;;;;;;;1.80;1.70;;;;;;;;;;5101917;28;20208;-46
2021/05/02 05:09:00;;;;;;;1.98;1.77;;;;;;;;;;5104176;28;20181;-46
2021/05/02 05:11:26;;;;;;;1.95;1.85;;;;;;;;;;5107382;28;20549;-46
2021/05/02 05:13:52;;;;;;;1.90;1.80;;;;;;;;;;5104068;28;20203;-46
2021/05/02 05:16:18;;;;;;;1.98;1.88;;;;;;;;;;5107159;28;20567;-46
2021/05/02 05:18:44;;;;;;;3.00;2.05;;;;;;;;;;5110322;28;20177;-46
2021/05/02 05:21:10;;;;;;;1.90;1.80;;;;;;;;;;5101526;28;20790;-46
2021/05/02 05:23:37;;;;;;;1.80;1.70;;;;;;;;;;5104373;28;20176;-46
2021/05/02 05:26:03;;;;;;;2.13;2.03;;;;;;;;;;5077323;28;20204;-46
2021/05/02 05:28:29;;;;;;;1.70;1.60;;;;;;;;;;5114560;28;20252;-46
2021/05/02 05:30:55;;;;;;;8.00;1.98;;;;;;;;;;5114586;28;20565;-46
2021/05/02 05:33:22;;;;;;;5.80;2.03;;;;;;;;;;5115211;28;20180;-46
2021/05/02 05:35:48;;;;;;;1.88;1.75;;;;;;;;;;5115355;28;20189;-46
2021/05/02 05:38:14;;;;;;;3.53;1.80;;;;;;;;;;5115121;28;20753;-46
2021/05/02 05:40:40;;;;;;;6.47;2.15;;;;;;;;;;5114503;28;20575;-46
2021/05/02 05:43:07;;;;;;;8.40;2.00;;;;;;;;;;5114287;28;20183;-46
2021/05/02 05:45:33;;;;;;;1.80;1.70;;;;;;;;;;5115151;28;20185;-46
2021/05/02 05:48:00;;;;;;;2.65;2.00;;;;;;;;;;5113913;28;20773;-46
2021/05/02 05:50:27;;;;;;;1.80;1.70;;;;;;;;;;5114921;28;20192;-46
2021/05/02 05:52:53;;;;;;;1.95;1.85;;;;;;;;;;5114785;28;20265;-46
2021/05/02 05:55:20;;;;;;;2.20;2.00;;;;;;;;;;5115051;28;20161;-46
2021/05/02 05:57:50;;;;;;;4.35;1.95;;;;;;;;;;5110782;28;20188;-46
2021/05/02 06:00:16;;;;;;;3.95;1.77;;;;;;;;;;5114938;28;20205;-46
2021/05/02 06:02:43;;;;;;;7.50;2.25;;;;;;;;;;5114342;28;20256;-46
2021/05/02 06:05:09;;;;;;;3.55;2.03;;;;;;;;;;5115028;28;20183;-46
2021/05/02 06:07:35;;;;;;;3.40;2.30;;;;;;;;;;5114493;28;20221;-46
2021/05/02 06:10:01;;;;;;;4.30;2.25;;;;;;;;;;5114730;28;20201;-46
2021/05/02 06:12:28;;;;;;;2.30;2.08;;;;;;;;;;5114606;28;20428;-46
2021/05/02 06:14:54;;;;;;;3.58;2.13;;;;;;;;;;5114926;28;20188;-46
2021/05/02 06:17:19;;;;;;;5.32;2.33;;;;;;;;;;5114373;28;20173;-46
2021/05/02 06:19:45;;;;;;;8.10;2.40;;;;;;;;;;5114826;28;20562;-46
2021/05/02 06:22:12;;;;;;;5.50;2.40;;;;;;;;;;5114037;28;20229;-46
2021/05/02 06:24:37;;;;;;;4.78;2.40;;;;;;;;;;5114550;28;20173;-46
2021/05/02 06:27:04;;;;;;;3.45;2.75;;;;;;;;;;5114491;28;20192;-46
2021/05/02 06:29:30;;;;;;;6.30;2.70;;;;;;;;;;5114603;28;20334;-46
2021/05/02 06:31:56;;;;;;;5.38;2.55;;;;;;;;;;5113956;28;20260;-46
2021/05/02 06:34:22;;;;;;;2.63;2.35;;;;;;;;;;5114305;28;20256;-46
2021/05/02 06:36:48;;;;;;;3.38;2.00;;;;;;;;;;5112591;28;20174;-46
2021/05/02 06:39:14;;;;;;;7.10;2.60;;;;;;;;;;5094485;28;20166;-46
2021/05/02 06:41:44;;;;;;;7.82;2.75;;;;;;;;;;5093911;28;20181;-46
2021/05/02 06:44:11;;;;;;;4.35;2.60;;;;;;;;;;5112616;28;20253;-46
2021/05/02 06:46:38;;;;;;;4.60;2.28;;;;;;;;;;5114051;28;20201;-46
2021/05/02 06:49:05;;;;;;;4.78;2.53;;;;;;;;;;5114087;28;20200;-46
2021/05/02 06:51:31;;;;;;;2.92;2.45;;;;;;;;;;5113852;28;20188;-46
2021/05/02 06:53:58;;;;;;;3.65;2.47;;;;;;;;;;5114822;28;20676;-46
2021/05/02 06:56:24;;;;;;;4.63;2.58;;;;;;;;;;5114589;28;20161;-46
2021/05/02 06:58:53;;;;;;;6.43;2.42;;;;;;;;;;5115908;28;20259;-46
2021/05/02 07:01:20;;;;;;;2.65;2.45;;;;;;;;;;5117717;28;20177;-46
2021/05/02 07:03:46;;;;;;;3.42;2.25;;;;;;;;;;5117584;28;20205;-46
2021/05/02 07:06:12;;;;;;;3.47;2.60;;;;;;;;;;5118266;28;20165;-46
2021/05/02 07:08:38;;;;;;;5.70;2.80;;;;;;;;;;5117945;28;20554;-46
2021/05/02 07:11:04;;;;;;;15.35;2.60;;;;;;;;;;5117572;28;20209;-41
2021/05/02 07:13:31;;;;;;;7.55;2.65;;;;;;;;;;5117511;28;20165;-41
2021/05/02 07:15:59;;;;;;;6.45;2.47;;;;;;;;;;5118312;28;20222;-43
2021/05/02 07:18:28;;;;;;;6.95;2.85;;;;;;;;;;5117295;28;20251;-40
2021/05/02 07:20:54;;;;;;;7.30;2.70;;;;;;;;;;5117177;28;20279;-41
2021/05/02 07:23:20;;;;;;;3.50;2.58;;;;;;;;;;5114188;28;20264;-41
2021/05/02 07:25:46;;;;;;;6.80;3.10;;;;;;;;;;5098991;28;20218;-42
2021/05/02 07:28:11;;;;;;;8.18;3.08;;;;;;;;;;5117266;28;20204;-42
2021/05/02 07:30:37;;;;;;;10.35;2.90;;;;;;;;;;5116136;28;20507;-41
2021/05/02 07:33:04;;;;;;;7.18;2.72;;;;;;;;;;5115836;28;20170;-41
2021/05/02 07:35:30;;;;;;;4.95;2.58;;;;;;;;;;5116718;28;20177;-41
2021/05/02 07:37:56;;;;;;;5.18;2.80;;;;;;;;;;5117303;28;20445;-41
2021/05/02 07:40:23;;;;;;;6.97;3.03;;;;;;;;;;5117399;28;20177;-41
2021/05/02 07:42:49;;;;;;;8.05;2.78;;;;;;;;;;5117023;28;20238;-41
2021/05/02 07:45:15;;;;;;;4.72;2.75;;;;;;;;;;5117707;28;20174;-41
2021/05/02 07:47:41;;;;;;;6.97;2.50;;;;;;;;;;5116070;28;20185;-41
2021/05/02 07:50:08;;;;;;;4.88;2.70;;;;;;;;;;5116601;28;20262;-41
2021/05/02 07:52:34;;;;;;;6.72;2.75;;;;;;;;;;5116659;28;20201;-41
2021/05/02 07:55:00;;;;;;;4.88;2.60;;;;;;;;;;5116401;28;20181;-41
2021/05/02 07:57:26;;;;;;;6.15;2.50;;;;;;;;;;5116837;28;20275;-41
2021/05/02 07:59:52;;;;;;;7.63;3.08;;;;;;;;;;5116807;28;20181;-41
2021/05/02 08:02:20;;;;;;;4.65;2.75;;;;;;;;;;5115798;28;20177;-41
2021/05/02 08:04:46;;;;;;;5.93;2.67;;;;;;;;;;5116811;28;20188;-41
2021/05/02 08:07:12;;;;;;;3.90;2.67;;;;;;;;;;5116082;28;20192;-42
2021/05/02 08:09:38;;;;;;;5.93;2.75;;;;;;;;;;5115844;28;20205;-41
2021/05/02 08:12:07;;;;;;;6.38;2.40;;;;;;;;;;5116325;28;20173;-42
2021/05/02 08:14:33;;;;;;;4.40;2.42;;;;;;;;;;5115946;28;20180;-41
2021/05/02 08:16:59;;;;;;;6.45;2.45;;;;;;;;;;5100070;28;20181;-41
2021/05/02 08:19:26;;;;;;;4.68;2.60;;;;;;;;;;5116514;28;20177;-41
2021/05/02 08:21:52;;;;;;;5.10;2.15;;;;;;;;;;5116156;28;20177;-41
2021/05/02 08:24:18;;;;;;;5.18;2.38;;;;;;;;;;5116616;28;20184;-41
2021/05/02 08:26:44;;;;;;;2.35;2.15;;;;;;;;;;5116620;28;20442;-41
2021/05/02 08:29:10;;;;;;;3.22;2.22;;;;;;;;;;5116535;28;20180;-41
2021/05/02 08:31:37;;;;;;;3.17;2.05;;;;;;;;;;5097691;28;20225;-41
2021/05/02 08:34:04;;;;;;;5.35;2.40;;;;;;;;;;5116426;28;20177;-42
2021/05/02 08:36:30;;;;;;;5.72;2.70;;;;;;;;;;5116350;28;20197;-42
2021/05/02 08:38:56;;;;;;;2.40;2.05;;;;;;;;;;5116868;28;20214;-41
2021/05/02 08:41:22;;;;;;;2.38;2.00;;;;;;;;;;5115993;28;20169;-41
2021/05/02 08:43:52;;;;;;;2.63;2.13;;;;;;;;;;5115881;28;20269;-41
2021/05/02 08:46:18;;;;;;;4.07;2.17;;;;;;;;;;5115917;28;20189;-41
2021/05/02 08:48:44;;;;;;;3.05;2.10;;;;;;;;;;5115859;28;20757;-41
2021/05/02 08:51:10;;;;;;;3.35;2.28;;;;;;;;;;5115648;28;20247;-41
2021/05/02 08:53:36;;;;;;;3.83;2.20;;;;;;;;;;5107537;28;20197;-42
2021/05/02 08:56:03;;;;;;;3.40;2.00;;;;;;;;;;5095909;28;20208;-41
2021/05/02 08:58:29;;;;;;;1.85;1.73;;;;;;;;;;5111192;28;20180;-41
2021/05/02 09:01:00;;;;;;;3.28;2.10;;;;;;;;;;5115588;28;20284;-41
2021/05/02 09:03:41;;;;;;;2.78;2.00;;;;;;;;;;5110163;28;20241;-41
2021/05/02 09:06:21;;;;;;;2.17;1.98;;;;;;;;;;5116085;28;20175;-41
2021/05/02 09:08:47;;;;;;;2.45;2.10;;;;;;;;;;5115533;28;20161;-41
2021/05/02 09:11:14;;;;;;;3.47;1.90;;;;;;;;;;5115092;28;20534;-41
2021/05/02 09:13:51;;;;;;;1.83;1.73;;;;;;;;;;5115526;28;20184;-41
2021/05/02 09:16:17;;;;;;;2.83;2.10;;;;;;;;;;5115925;28;20164;-41
2021/05/02 09:18:49;;;;;;;1.90;1.75;;;;;;;;;;5115181;28;20181;-42
2021/05/02 09:21:27;;;;;;;2.10;1.55;;;;;;;;;;5104267;28;20196;-42
2021/05/02 09:23:54;;;;;;;1.80;1.58;;;;;;;;;;5115775;28;20490;-42
2021/05/02 09:26:22;;;;;;;2.13;1.92;;;;;;;;;;5115577;28;20264;-41
2021/05/02 09:28:53;;;;;;;2.08;1.98;;;;;;;;;;5097484;28;20177;-41
2021/05/02 09:31:23;;;;;;;2.72;2.13;;;;;;;;;;5114845;28;20197;-41
2021/05/02 09:33:49;;;;;;;1.75;1.65;;;;;;;;;;5114465;28;20441;-41
2021/05/02 09:36:16;;;;;;;2.70;1.85;;;;;;;;;;5115218;28;20173;-41
2021/05/02 09:38:43;;;;;;;3.15;1.95;;;;;;;;;;5102580;28;20243;-41
2021/05/02 09:41:09;;;;;;;2.20;1.42;;;;;;;;;;5114208;28;20526;-41
2021/05/02 09:43:37;;;;;;;1.95;1.63;;;;;;;;;;5115128;28;20185;-41
2021/05/02 09:48:53;;;;;;;2.10;1.92;;;;;;;;;;5114921;28;20584;-41
2021/05/02 09:51:21;;;;;;;2.80;1.80;;;;;;;;;;5114310;28;20230;-41
2021/05/02 09:54:10;;;;;;;2.08;1.88;;;;;;;;;;5114858;28;20197;-41
2021/05/02 09:56:36;;;;;;;2.92;1.92;;;;;;;;;;5094742;28;20211;-41
2021/05/02 09:59:02;;;;;;;2.85;2.25;;;;;;;;;;5113588;28;20556;-41
2021/05/02 10:01:28;;;;;;;2.80;1.92;;;;;;;;;;5114156;28;20184;-41
2021/05/02 10:03:55;;;;;;;3.75;1.95;;;;;;;;;;5114519;28;20223;-42
2021/05/02 10:06:31;;;;;;;2.10;1.80;;;;;;;;;;5115161;28;20169;-41
2021/05/02 10:08:58;;;;;;;4.43;2.30;;;;;;;;;;5114047;28;20261;-41
2021/05/02 10:11:25;;;;;;;2.53;1.77;;;;;;;;;;5113352;28;20596;-41
2021/05/02 10:13:51;;;;;;;3.13;2.03;;;;;;;;;;5114568;28;20204;-41
2021/05/02 10:16:17;;;;;;;2.05;1.70;;;;;;;;;;5114602;28;20177;-41
2021/05/02 10:18:43;;;;;;;1.90;1.80;;;;;;;;;;5114435;28;20180;-41
2021/05/02 10:21:10;;;;;;;3.05;2.00;;;;;;;;;;5114052;28;20484;-41
2021/05/02 10:23:36;;;;;;;3.00;1.42;;;;;;;;;;5115114;28;20251;-41
2021/05/02 10:26:04;;;;;;;3.67;2.03;;;;;;;;;;5114242;28;20794;-41
2021/05/02 10:28:30;;;;;;;3.58;1.92;;;;;;;;;;5114260;28;20222;-42
2021/05/02 10:31:00;;;;;;;4.47;2.58;;;;;;;;;;5113741;28;20204;-41
2021/05/02 10:33:37;;;;;;;8.18;4.40;;;;;;;;;;5117057;28;20165;-41
2021/05/02 10:36:04;;;;;;;4.45;3.60;;;;;;;;;;5114190;28;20218;-41
2021/05/02 10:38:50;;;;;;;7.43;3.85;;;;;;;;;;5104875;28;20188;-41
2021/05/02 10:41:31;;;;;;;4.35;3.28;;;;;;;;;;5117434;28;20177;-41
2021/05/02 10:44:17;;;;;;;6.78;3.85;;;;;;;;;;5118507;28;20177;-42
2021/05/02 10:46:52;;;;;;;4.30;3.30;;;;;;;;;;5100121;28;20197;-41
2021/05/02 10:49:19;;;;;;;8.70;4.70;;;;;;;;;;5115514;28;20537;-42
2021/05/02 10:51:45;;;;;;;7.57;4.90;;;;;;;;;;5117971;28;20629;-41
2021/05/02 10:54:12;;;;;;;9.93;4.95;;;;;;;;;;5118416;28;20165;-42
2021/05/02 10:56:45;;;;;;;11.23;4.55;;;;;;;;;;5118375;28;20169;-41
2021/05/02 10:59:11;;;;;;;7.30;4.00;;;;;;;;;;5118046;28;20181;-41
2021/05/02 11:01:37;;;;;;;8.55;4.15;;;;;;;;;;5117211;28;20181;-41
2021/05/02 11:04:04;;;;;;;10.30;3.85;;;;;;;;;;5118030;28;20177;-41
2021/05/02 11:06:39;;;;;;;10.57;3.83;;;;;;;;;;5100360;28;20184;-41
2021/05/02 11:09:12;;;;;;;7.35;3.50;;;;;;;;;;5118030;28;20479;-42
2021/05/02 11:11:39;;;;;;;5.70;3.05;;;;;;;;;;5114142;28;20211;-41
2021/05/02 11:14:08;;;;;;;8.02;3.00;;;;;;;;;;5118155;28;20173;-42
2021/05/02 11:16:41;;;;;;;7.25;3.13;;;;;;;;;;5117935;28;20174;-41
2021/05/02 11:19:07;;;;;;;6.00;2.92;;;;;;;;;;5117423;28;20199;-41
2021/05/02 11:22:09;;;;;;;9.15;3.20;;;;;;;;;;5117031;28;20223;-41
2021/05/02 11:24:47;;;;;;;8.18;3.05;;;;;;;;;;5102632;28;20232;-41
2021/05/02 11:27:24;;;;;;;5.00;2.78;;;;;;;;;;5108234;28;20259;-41
2021/05/02 11:29:56;;;;;;;7.13;2.90;;;;;;;;;;5113886;28;20560;-42
2021/05/02 11:32:28;;;;;;;7.20;2.80;;;;;;;;;;5116346;28;20173;-42
2021/05/02 11:34:59;;;;;;;3.45;2.35;;;;;;;;;;5117514;28;20184;-42
2021/05/02 11:37:44;;;;;;;4.25;2.80;;;;;;;;;;5117301;28;20177;-41
2021/05/02 11:42:54;;;;;;;3.97;2.30;;;;;;;;;;5116851;28;20217;-42
2021/05/02 11:45:21;;;;;;;10.65;2.50;;;;;;;;;;5117626;28;20233;-41
2021/05/02 11:47:47;;;;;;;4.65;2.33;;;;;;;;;;5116789;28;20265;-42
2021/05/02 11:50:14;;;;;;;4.07;2.60;;;;;;;;;;5117193;28;20208;-41
2021/05/02 11:52:50;;;;;;;5.30;2.28;;;;;;;;;;5116716;28;20221;-46
2021/05/02 11:55:26;;;;;;;6.40;2.60;;;;;;;;;;5116875;28;20172;-41
2021/05/02 11:57:53;;;;;;;33.30;8.20;;;;;;;;;;5116121;28;20184;-42
2021/05/02 12:00:32;;;;;;;25.25;7.25;;;;;;;;;;5117226;28;20169;-41
2021/05/02 12:02:58;;;;;;;75.95;17.50;;;;;;;;;;5116537;28;20583;-41
2021/05/02 12:05:24;;;;;;;112.35;26.33;;;;;;;;;;5117209;28;20189;-41
2021/05/02 12:08:06;;;;;;;128.45;29.20;;;;;;;;;;5116741;28;20213;-41
2021/05/02 12:10:32;;;;;;;124.97;30.42;;;;;;;;;;5116707;28;20211;-41
2021/05/02 12:12:58;;;;;;;102.32;24.27;;;;;;;;;;5116344;28;20185;-41
2021/05/02 12:15:24;;;;;;;77.40;19.42;;;;;;;;;;5116899;28;20173;-42
2021/05/02 12:17:53;;;;;;;70.20;16.70;;;;;;;;;;5116399;28;20188;-41
2021/05/02 12:20:23;;;;;;;60.13;14.80;;;;;;;;;;5116283;28;20189;-41
2021/05/02 12:22:49;;;;;;;50.67;13.95;;;;;;;;;;5098440;28;20181;-41
2021/05/02 12:25:16;;;;;;;50.00;13.40;;;;;;;;;;5116779;28;20173;-41
2021/05/02 12:27:59;;;;;;;42.38;12.25;;;;;;;;;;5116375;28;20248;-41
2021/05/02 12:30:26;;;;;;;43.58;12.82;;;;;;;;;;5116442;28;20193;-41
2021/05/02 12:32:52;;;;;;;43.88;11.98;;;;;;;;;;5115539;28;20200;-42
2021/05/02 12:35:18;;;;;;;36.67;11.05;;;;;;;;;;5116308;28;20169;-41
2021/05/02 12:37:44;;;;;;;37.35;12.65;;;;;;;;;;5115409;28;20172;-41
2021/05/02 12:40:11;;;;;;;48.40;11.88;;;;;;;;;;5096515;28;20506;-42
2021/05/02 12:42:38;;;;;;;35.03;11.10;;;;;;;;;;5095611;28;20166;-41
2021/05/02 12:45:06;;;;;;;31.58;10.85;;;;;;;;;;5109914;28;20563;-41
2021/05/02 12:47:38;;;;;;;43.88;11.45;;;;;;;;;;5115616;28;20173;-42
2021/05/02 12:50:06;;;;;;;33.13;10.77;;;;;;;;;;5109267;28;20225;-42
2021/05/02 12:52:33;;;;;;;76.63;21.08;;;;;;;;;;5102021;28;20184;-42
2021/05/02 12:55:18;;;;;;;78.03;22.55;;;;;;;;;;5115736;28;20176;-42
2021/05/02 12:57:48;;;;;;;89.38;24.38;;;;;;;;;;5115938;28;20169;-41
2021/05/02 13:00:17;;;;;;;75.20;21.80;;;;;;;;;;5116107;28;20181;-41
2021/05/02 13:02:45;;;;;;;75.53;21.00;;;;;;;;;;5115003;28;20196;-41
2021/05/02 13:05:16;;;;;;;74.90;18.38;;;;;;;;;;5116048;28;20177;-41
2021/05/02 13:07:44;;;;;;;48.15;16.55;;;;;;;;;;5115834;28;20222;-41
2021/05/02 13:10:19;;;;;;;52.25;16.70;;;;;;;;;;5095633;28;20276;-41
2021/05/02 13:12:48;;;;;;;43.63;14.77;;;;;;;;;;5085494;28;20301;-41
2021/05/02 13:15:16;;;;;;;53.67;15.00;;;;;;;;;;5115712;28;20173;-41
2021/05/02 13:18:01;;;;;;;47.90;14.77;;;;;;;;;;5115377;28;20176;-42
2021/05/02 13:20:27;;;;;;;39.17;14.40;;;;;;;;;;5115056;28;20181;-41
2021/05/02 13:22:53;;;;;;;38.45;14.02;;;;;;;;;;5115310;28;20177;-42
2021/05/02 13:25:20;;;;;;;42.90;13.50;;;;;;;;;;5115766;28;20544;-42
2021/05/02 13:27:54;;;;;;;40.08;13.57;;;;;;;;;;5115462;28;20169;-41
2021/05/02 13:30:26;;;;;;;39.63;13.80;;;;;;;;;;5115664;28;20193;-41
2021/05/02 13:33:05;;;;;;;34.22;13.13;;;;;;;;;;5115022;28;20200;-41
2021/05/02 13:35:36;;;;;;;31.50;11.65;;;;;;;;;;5115247;28;20184;-41
2021/05/02 13:38:03;;;;;;;27.33;12.02;;;;;;;;;;5115473;28;20173;-41
2021/05/02 13:40:29;;;;;;;33.03;11.68;;;;;;;;;;5115228;28;20214;-41
2021/05/02 13:42:56;;;;;;;30.38;11.48;;;;;;;;;;5114875;28;20177;-41
2021/05/02 13:45:22;;;;;;;31.25;11.48;;;;;;;;;;5114074;28;20192;-42
2021/05/02 13:47:48;;;;;;;34.60;10.85;;;;;;;;;;5115062;28;20471;-41
2021/05/02 13:50:15;;;;;;;38.63;11.10;;;;;;;;;;5113161;28;20197;-41
2021/05/02 13:52:41;;;;;;;24.77;10.75;;;;;;;;;;5114405;28;20173;-42
2021/05/02 13:55:07;;;;;;;22.67;9.45;;;;;;;;;;5115393;28;20175;-42
2021/05/02 13:57:33;;;;;;;26.52;10.75;;;;;;;;;;5114691;28;20193;-41
2021/05/02 13:59:59;;;;;;;26.65;10.15;;;;;;;;;;5115041;28;20184;-41
2021/05/02 14:02:25;;;;;;;26.95;10.23;;;;;;;;;;5113529;28;20279;-41
2021/05/02 14:04:52;;;;;;;23.52;9.07;;;;;;;;;;5114607;28;20187;-41
2021/05/02 14:07:18;;;;;;;24.08;9.88;;;;;;;;;;5113866;28;20454;-41
2021/05/02 14:09:44;;;;;;;24.30;9.43;;;;;;;;;;5114448;28;20211;-41
2021/05/02 14:12:10;;;;;;;25.10;8.98;;;;;;;;;;5114116;28;20237;-42
2021/05/02 14:14:39;;;;;;;17.30;8.43;;;;;;;;;;5114899;28;20248;-42
2021/05/02 14:17:05;;;;;;;25.05;10.00;;;;;;;;;;5113878;28;20180;-42
2021/05/02 14:19:31;;;;;;;18.30;8.18;;;;;;;;;;5114712;28;20183;-42
2021/05/02 14:21:57;;;;;;;19.75;8.93;;;;;;;;;;5113972;28;20282;-42
2021/05/02 14:24:23;;;;;;;21.23;8.60;;;;;;;;;;5114912;28;20275;-41
2021/05/02 14:26:49;;;;;;;22.58;8.75;;;;;;;;;;5113725;28;20251;-42
2021/05/02 14:29:15;;;;;;;20.75;8.45;;;;;;;;;;5114710;28;20173;-42
2021/05/02 14:31:41;;;;;;;17.35;7.90;;;;;;;;;;5113068;28;20205;-42
2021/05/02 14:34:11;;;;;;;16.65;7.78;;;;;;;;;;5114560;28;20248;-42
2021/05/02 14:36:38;;;;;;;18.48;7.70;;;;;;;;;;5114778;28;20556;-43
2021/05/02 14:39:05;;;;;;;18.25;7.78;;;;;;;;;;5114985;28;20517;-42
2021/05/02 14:41:31;;;;;;;14.73;7.22;;;;;;;;;;5113822;28;20450;-41
2021/05/02 14:43:57;;;;;;;22.17;7.75;;;;;;;;;;5110095;28;20189;-41
2021/05/02 14:46:23;;;;;;;13.95;7.13;;;;;;;;;;5113879;28;20177;-41
2021/05/02 14:48:48;;;;;;;22.33;8.52;;;;;;;;;;5114164;28;20555;-42